Etusivu
METAR-TAF:

METAR-TAF

Lentoasemat :

Aransas County Airport

Rockport, Texas, Yhdysvallat

Leveyspiiri: 28-05-01N, Pituuspiiri: 097-02-47W, korkeus merenpinnasta: 7 m

Tämänhetkinen sää

Tämä raportti tehtiin 51 minuuttia sitten, kello 08.53 UTC
Tuuli 10 kn pohjoisesta
Lämpötila 3°C
Kosteus 60%
Ilmanpaine 1029 hPa
Näkyvyys: 16.1 km
selkeää

METAR: KRKP 130853Z AUTO 01010KT 10SM CLR 03/M04 A3040 RMK AO2 SLP294 T00331044 58010 PWINO

Aika: 03:44 (09:44 UTC)


TAF: puuttuu

Säähavainnot ja -ennusteet yli 4000 lentoasemalta (METAR- ja TAF-raportit).

Käytössä olevat sääasemat on merkitty karttaan keltaisilla ja punaisilla pisteillä.

Aseta hiiri pisteen päälle nähdäksesi sääaseman nimen.

Klikkaa sitten nähdäksesi säähavainnot ja -ennusteet.

Kartan vaihtaminen: klikkaa mustalla rastilla varustettuja vihreitä pisteitä, niin voit zoomata sisään; viivalla varustettua vihreää pistettä, niin voit zoomata ulos tai vihreitä nuolia, niin pääset viereisille kartoille.


METAR-TAF: